Time;durP1;ratioP1;P1;durP2;ratioP2;P2;SDS_P1;SDS_P2;PMS_P1;PMS_P2;Temp;Humidity;BMP_temperature;BMP_pressure;BME280_temperature;BME280_humidity;BME280_pressure;Samples;Min_cycle;Max_cycle;Signal;HPM_P1;HPM_P2
2022/12/20 00:00:53;;;;;;;10.63;6.00;;;;;;;;;;4995253;28;20515;-81
2022/12/20 00:03:19;;;;;;;12.35;6.28;;;;;;;;;;4987787;28;20070;-81
2022/12/20 00:05:45;;;;;;;8.98;5.78;;;;;;;;;;4970284;28;20513;-80
2022/12/20 00:08:12;;;;;;;10.48;5.70;;;;;;;;;;4986992;28;20042;-82
2022/12/20 00:10:42;;;;;;;9.43;5.20;;;;;;;;;;4988691;28;20018;-80
2022/12/20 00:13:08;;;;;;;9.13;5.35;;;;;;;;;;4986972;28;20027;-81
2022/12/20 00:15:34;;;;;;;9.18;5.30;;;;;;;;;;4986749;28;20058;-80
2022/12/20 00:18:01;;;;;;;7.75;4.97;;;;;;;;;;4990690;28;20431;-81
2022/12/20 00:20:27;;;;;;;8.38;5.28;;;;;;;;;;4982181;28;20030;-82
2022/12/20 00:22:54;;;;;;;8.30;5.90;;;;;;;;;;4987165;28;20093;-80
2022/12/20 00:25:20;;;;;;;8.88;5.15;;;;;;;;;;4984220;28;20034;-80
2022/12/20 00:27:50;;;;;;;8.65;5.13;;;;;;;;;;4995398;28;20118;-79
2022/12/20 00:30:16;;;;;;;9.27;5.47;;;;;;;;;;4986430;28;20034;-79
2022/12/20 00:32:43;;;;;;;8.65;5.20;;;;;;;;;;4978388;28;20034;-79
2022/12/20 00:35:09;;;;;;;10.55;5.75;;;;;;;;;;4982008;28;20030;-81
2022/12/20 00:37:35;;;;;;;9.95;5.78;;;;;;;;;;4984897;28;20030;-80
2022/12/20 00:40:02;;;;;;;8.95;4.65;;;;;;;;;;4997711;28;20466;-81
2022/12/20 00:42:28;;;;;;;8.18;4.65;;;;;;;;;;4984604;28;20066;-81
2022/12/20 00:44:54;;;;;;;8.02;4.93;;;;;;;;;;4994251;28;20090;-81
2022/12/20 00:47:21;;;;;;;6.47;4.75;;;;;;;;;;4980641;28;20035;-81
2022/12/20 00:49:47;;;;;;;7.30;5.10;;;;;;;;;;4984319;28;20071;-81
2022/12/20 00:52:13;;;;;;;8.20;5.35;;;;;;;;;;4997212;28;20511;-82
2022/12/20 00:54:39;;;;;;;6.95;4.60;;;;;;;;;;4981851;28;20045;-81
2022/12/20 00:57:05;;;;;;;8.50;5.03;;;;;;;;;;4991782;28;20038;-80
2022/12/20 00:59:32;;;;;;;8.07;4.60;;;;;;;;;;4983148;28;20109;-81
2022/12/20 01:01:58;;;;;;;9.18;4.90;;;;;;;;;;4986423;28;20104;-81
2022/12/20 01:04:24;;;;;;;12.32;5.03;;;;;;;;;;4983177;28;20461;-81
2022/12/20 01:06:51;;;;;;;8.80;4.70;;;;;;;;;;4988109;28;20046;-80
2022/12/20 01:09:17;;;;;;;10.70;5.20;;;;;;;;;;4990408;28;20076;-81
2022/12/20 01:11:44;;;;;;;9.57;6.20;;;;;;;;;;4988371;28;20467;-80
2022/12/20 01:14:12;;;;;;;8.85;5.70;;;;;;;;;;4993611;28;20111;-81
2022/12/20 01:16:40;;;;;;;9.95;5.47;;;;;;;;;;4994822;28;20550;-81
2022/12/20 01:19:07;;;;;;;10.75;5.75;;;;;;;;;;4989748;28;20388;-80
2022/12/20 01:21:33;;;;;;;8.35;5.10;;;;;;;;;;4991346;28;20093;-81
2022/12/20 01:23:59;;;;;;;7.78;4.82;;;;;;;;;;4985661;28;20432;-81
2022/12/20 01:26:27;;;;;;;11.63;6.43;;;;;;;;;;5003311;28;20081;-80
2022/12/20 01:28:54;;;;;;;11.82;6.30;;;;;;;;;;5004907;28;20084;-80
2022/12/20 01:31:21;;;;;;;10.02;6.03;;;;;;;;;;4989959;28;20124;-81
2022/12/20 01:33:48;;;;;;;11.38;5.35;;;;;;;;;;4995744;28;20053;-80
2022/12/20 01:36:15;;;;;;;9.73;6.43;;;;;;;;;;4989081;28;20022;-81
2022/12/20 01:38:41;;;;;;;9.23;6.63;;;;;;;;;;4989640;28;20729;-81
2022/12/20 01:41:08;;;;;;;8.43;5.97;;;;;;;;;;4987416;28;20085;-81
2022/12/20 01:43:50;;;;;;;13.10;6.72;;;;;;;;;;4990593;28;20058;-80
2022/12/20 01:46:16;;;;;;;11.00;6.38;;;;;;;;;;4986842;28;20089;-81
2022/12/20 01:48:43;;;;;;;13.77;6.32;;;;;;;;;;4990899;28;20028;-81
2022/12/20 01:51:29;;;;;;;10.77;6.95;;;;;;;;;;4992268;28;20035;-82
2022/12/20 01:53:58;;;;;;;9.95;5.65;;;;;;;;;;4988060;28;20058;-81
2022/12/20 01:56:24;;;;;;;13.90;6.47;;;;;;;;;;4999485;28;20555;-81
2022/12/20 01:58:52;;;;;;;10.63;5.88;;;;;;;;;;4990511;28;20053;-81
2022/12/20 02:01:18;;;;;;;11.95;6.55;;;;;;;;;;4984369;28;21118;-80
2022/12/20 02:03:46;;;;;;;17.77;5.65;;;;;;;;;;4982274;28;20389;-80
2022/12/20 02:06:17;;;;;;;11.85;6.30;;;;;;;;;;4987097;28;20399;-82
2022/12/20 02:08:44;;;;;;;9.65;6.35;;;;;;;;;;4986159;28;20030;-81
2022/12/20 02:11:19;;;;;;;11.80;7.15;;;;;;;;;;4985630;28;20038;-81
2022/12/20 02:14:04;;;;;;;10.35;6.80;;;;;;;;;;4992745;28;20050;-81
2022/12/20 02:16:35;;;;;;;11.43;6.45;;;;;;;;;;4983789;28;20050;-81
2022/12/20 02:19:10;;;;;;;11.82;6.85;;;;;;;;;;4986086;28;20030;-80
2022/12/20 02:21:42;;;;;;;8.85;5.88;;;;;;;;;;5004702;28;20065;-80
2022/12/20 02:24:08;;;;;;;8.98;6.50;;;;;;;;;;5002697;28;20049;-80
2022/12/20 02:26:41;;;;;;;13.23;6.53;;;;;;;;;;4989394;28;20037;-81
2022/12/20 02:29:10;;;;;;;10.38;6.22;;;;;;;;;;4987936;28;20034;-80
2022/12/20 02:31:42;;;;;;;12.38;7.00;;;;;;;;;;5000063;28;20030;-81
2022/12/20 02:34:09;;;;;;;10.45;6.80;;;;;;;;;;4976674;28;20038;-81
2022/12/20 02:36:36;;;;;;;9.25;6.82;;;;;;;;;;4987039;28;20035;-80
2022/12/20 02:39:03;;;;;;;12.68;7.18;;;;;;;;;;4984582;28;20469;-81
2022/12/20 02:41:35;;;;;;;18.98;7.28;;;;;;;;;;4985158;28;20036;-80
2022/12/20 02:46:53;;;;;;;9.23;6.10;;;;;;;;;;4989798;28;20130;-80
2022/12/20 02:49:21;;;;;;;9.95;6.78;;;;;;;;;;4987670;28;20038;-80
2022/12/20 02:51:48;;;;;;;10.02;5.68;;;;;;;;;;4985978;28;20529;-80
2022/12/20 02:54:15;;;;;;;10.48;6.60;;;;;;;;;;4984143;28;21134;-80
2022/12/20 02:56:43;;;;;;;11.50;6.05;;;;;;;;;;4985130;28;20101;-80
2022/12/20 02:59:10;;;;;;;10.93;6.07;;;;;;;;;;4987048;28;20026;-80
2022/12/20 03:01:38;;;;;;;10.77;6.43;;;;;;;;;;4992466;28;20047;-81
2022/12/20 03:04:05;;;;;;;9.38;5.63;;;;;;;;;;4985841;28;20026;-79
2022/12/20 03:06:31;;;;;;;11.60;6.05;;;;;;;;;;4985213;28;20022;-80
2022/12/20 03:08:58;;;;;;;10.82;5.88;;;;;;;;;;4982956;28;20041;-79
2022/12/20 03:11:27;;;;;;;11.40;5.68;;;;;;;;;;4988329;28;20069;-80
2022/12/20 03:13:53;;;;;;;11.77;6.18;;;;;;;;;;4988236;28;20483;-80
2022/12/20 03:16:19;;;;;;;11.15;5.82;;;;;;;;;;4986788;28;20026;-80
2022/12/20 03:18:46;;;;;;;8.50;5.68;;;;;;;;;;4981900;28;20538;-80
2022/12/20 03:21:13;;;;;;;10.20;6.00;;;;;;;;;;4991394;28;20029;-81
2022/12/20 03:23:39;;;;;;;11.85;6.53;;;;;;;;;;4984380;28;20138;-81
2022/12/20 03:26:05;;;;;;;8.20;5.65;;;;;;;;;;5003912;28;20049;-80
2022/12/20 03:28:45;;;;;;;9.30;5.85;;;;;;;;;;5002642;28;20062;-81
2022/12/20 03:31:15;;;;;;;8.90;5.47;;;;;;;;;;4988834;28;20452;-81
2022/12/20 03:33:46;;;;;;;10.57;5.93;;;;;;;;;;4982762;28;20058;-80
2022/12/20 03:36:12;;;;;;;8.00;5.28;;;;;;;;;;4988098;28;20022;-81
2022/12/20 03:38:38;;;;;;;12.25;5.30;;;;;;;;;;4982561;28;20109;-80
2022/12/20 03:41:06;;;;;;;10.32;5.70;;;;;;;;;;5003270;28;20125;-81
2022/12/20 03:43:33;;;;;;;9.27;5.03;;;;;;;;;;4987105;28;20133;-79
2022/12/20 03:45:59;;;;;;;8.07;5.55;;;;;;;;;;4994244;28;20113;-80
2022/12/20 03:48:30;;;;;;;8.98;5.45;;;;;;;;;;4968102;28;20038;-80
2022/12/20 03:50:58;;;;;;;11.38;5.43;;;;;;;;;;4991090;28;20042;-80
2022/12/20 03:53:24;;;;;;;10.15;6.22;;;;;;;;;;4987255;28;20393;-81
2022/12/20 03:55:50;;;;;;;10.40;5.18;;;;;;;;;;4985804;28;20491;-81
2022/12/20 03:58:16;;;;;;;11.60;5.25;;;;;;;;;;4987092;28;20050;-83
2022/12/20 04:00:42;;;;;;;10.63;5.65;;;;;;;;;;4987695;28;20448;-81
2022/12/20 04:03:35;;;;;;;7.60;5.18;;;;;;;;;;4982844;28;20536;-80
2022/12/20 04:06:01;;;;;;;6.90;4.88;;;;;;;;;;4994020;28;20022;-80
2022/12/20 04:08:27;;;;;;;11.10;5.15;;;;;;;;;;5000404;28;20165;-79
2022/12/20 04:13:43;;;;;;;8.73;4.65;;;;;;;;;;4981823;28;20076;-79
2022/12/20 04:16:10;;;;;;;8.73;5.30;;;;;;;;;;5003044;28;20053;-81
2022/12/20 04:18:36;;;;;;;7.60;5.15;;;;;;;;;;4982254;28;20406;-81
2022/12/20 04:21:05;;;;;;;7.18;4.57;;;;;;;;;;4983309;28;20038;-80
2022/12/20 04:23:33;;;;;;;6.63;5.00;;;;;;;;;;4983976;28;20068;-81
2022/12/20 04:26:00;;;;;;;8.35;4.57;;;;;;;;;;4978582;28;20054;-80
2022/12/20 04:28:27;;;;;;;9.10;5.38;;;;;;;;;;5000737;28;20034;-80
2022/12/20 04:30:55;;;;;;;6.68;4.40;;;;;;;;;;5002578;28;20038;-80
2022/12/20 04:33:24;;;;;;;9.10;4.88;;;;;;;;;;5002599;28;20046;-80
2022/12/20 04:35:51;;;;;;;7.78;4.78;;;;;;;;;;4997309;28;20035;-80
2022/12/20 04:38:20;;;;;;;10.40;5.07;;;;;;;;;;4981225;28;20062;-80
2022/12/20 04:40:51;;;;;;;13.52;5.25;;;;;;;;;;4986525;28;20038;-80
2022/12/20 04:43:17;;;;;;;8.23;4.82;;;;;;;;;;4986997;28;20049;-79
2022/12/20 04:45:46;;;;;;;8.75;5.15;;;;;;;;;;4989511;28;20034;-80
2022/12/20 04:48:13;;;;;;;10.10;5.53;;;;;;;;;;4987012;28;20030;-83
2022/12/20 04:50:39;;;;;;;11.32;5.53;;;;;;;;;;4997720;28;20042;-81
2022/12/20 04:55:51;;;;;;;8.90;5.13;;;;;;;;;;4996675;28;20046;-80
2022/12/20 04:58:17;;;;;;;11.40;5.43;;;;;;;;;;4988723;28;20023;-82
2022/12/20 05:00:43;;;;;;;8.60;5.65;;;;;;;;;;4988266;28;20026;-80
2022/12/20 05:03:23;;;;;;;10.85;6.50;;;;;;;;;;5003734;28;20059;-80
2022/12/20 05:05:50;;;;;;;10.73;6.28;;;;;;;;;;4990067;28;20062;-81
2022/12/20 05:08:17;;;;;;;9.90;6.07;;;;;;;;;;5002993;28;20034;-80
2022/12/20 05:10:43;;;;;;;9.75;6.05;;;;;;;;;;4984234;28;20030;-80
2022/12/20 05:13:09;;;;;;;11.75;6.43;;;;;;;;;;4989586;28;20037;-80
2022/12/20 05:15:42;;;;;;;14.00;6.60;;;;;;;;;;4987015;28;20038;-80
2022/12/20 05:18:09;;;;;;;13.60;7.65;;;;;;;;;;4990315;28;20023;-79
2022/12/20 05:20:47;;;;;;;8.82;6.15;;;;;;;;;;4983987;28;20030;-79
2022/12/20 05:26:17;;;;;;;10.38;6.63;;;;;;;;;;5005776;28;20146;-79
2022/12/20 05:28:44;;;;;;;10.48;6.57;;;;;;;;;;4987231;28;20038;-81
2022/12/20 05:31:10;;;;;;;11.20;6.75;;;;;;;;;;4990270;28;20038;-82
2022/12/20 05:33:37;;;;;;;9.23;5.57;;;;;;;;;;4971233;28;20672;-80
2022/12/20 05:36:04;;;;;;;10.20;6.38;;;;;;;;;;4989253;28;20125;-80
2022/12/20 05:38:30;;;;;;;8.65;6.07;;;;;;;;;;4989445;28;20116;-80
2022/12/20 05:40:57;;;;;;;11.10;6.30;;;;;;;;;;4972467;28;20031;-80
2022/12/20 05:43:23;;;;;;;10.52;6.13;;;;;;;;;;4998496;28;20034;-80
2022/12/20 05:45:50;;;;;;;11.65;6.93;;;;;;;;;;4990286;28;20223;-81
2022/12/20 05:48:21;;;;;;;11.85;6.35;;;;;;;;;;4984310;28;20065;-79
2022/12/20 05:50:47;;;;;;;12.95;6.00;;;;;;;;;;4992128;28;20031;-81
2022/12/20 05:53:34;;;;;;;11.55;6.15;;;;;;;;;;4985295;28;20054;-79
2022/12/20 05:56:03;;;;;;;11.57;6.05;;;;;;;;;;4989599;28;20066;-78
2022/12/20 05:58:32;;;;;;;7.97;5.97;;;;;;;;;;4985158;28;20034;-79
2022/12/20 06:01:04;;;;;;;11.63;6.40;;;;;;;;;;4984299;28;20117;-79
2022/12/20 06:03:35;;;;;;;9.50;5.72;;;;;;;;;;5001280;28;20069;-79
2022/12/20 06:06:04;;;;;;;10.00;5.88;;;;;;;;;;4989900;28;20092;-79
2022/12/20 06:08:31;;;;;;;8.93;5.63;;;;;;;;;;4987720;28;20408;-79
2022/12/20 06:11:00;;;;;;;10.65;5.20;;;;;;;;;;5003794;28;20030;-79
2022/12/20 06:13:28;;;;;;;10.20;5.35;;;;;;;;;;4986627;28;20392;-80
2022/12/20 06:15:54;;;;;;;8.35;4.65;;;;;;;;;;4986802;28;20431;-79
2022/12/20 06:18:21;;;;;;;8.43;5.35;;;;;;;;;;4986068;28;20026;-81
2022/12/20 06:20:51;;;;;;;9.95;4.63;;;;;;;;;;4988465;28;20455;-79
2022/12/20 06:23:20;;;;;;;8.27;5.05;;;;;;;;;;4986274;28;20038;-80
2022/12/20 06:25:55;;;;;;;7.47;4.40;;;;;;;;;;5004405;28;20056;-80
2022/12/20 06:28:22;;;;;;;13.02;5.30;;;;;;;;;;4983955;28;20598;-81
2022/12/20 06:30:53;;;;;;;7.95;5.13;;;;;;;;;;5002338;28;20516;-80
2022/12/20 06:33:31;;;;;;;8.90;4.88;;;;;;;;;;4987086;28;20519;-80
2022/12/20 06:35:57;;;;;;;7.70;4.72;;;;;;;;;;5002246;28;20023;-81
2022/12/20 06:38:24;;;;;;;10.02;4.93;;;;;;;;;;4985521;28;20034;-81
2022/12/20 06:40:50;;;;;;;8.07;4.63;;;;;;;;;;4985667;28;20037;-82
2022/12/20 06:43:16;;;;;;;6.45;4.70;;;;;;;;;;5002733;28;20092;-87
2022/12/20 06:45:42;;;;;;;9.35;4.45;;;;;;;;;;5002099;28;20472;-80
2022/12/20 06:48:10;;;;;;;8.10;4.95;;;;;;;;;;4985915;28;20104;-82
2022/12/20 06:50:42;;;;;;;5.97;4.28;;;;;;;;;;4986756;28;20145;-80
2022/12/20 06:53:09;;;;;;;8.13;4.07;;;;;;;;;;5001081;28;20042;-80
2022/12/20 06:55:35;;;;;;;10.93;4.60;;;;;;;;;;4986676;28;20060;-79
2022/12/20 06:58:02;;;;;;;12.30;3.78;;;;;;;;;;4984372;28;20031;-80
2022/12/20 07:00:29;;;;;;;8.43;4.20;;;;;;;;;;4990556;28;20034;-81
2022/12/20 07:02:55;;;;;;;6.70;4.43;;;;;;;;;;4988792;28;20047;-80
2022/12/20 07:05:21;;;;;;;7.47;3.90;;;;;;;;;;4985045;28;20041;-80
2022/12/20 07:07:47;;;;;;;7.68;3.60;;;;;;;;;;4989522;28;20480;-80
2022/12/20 07:10:13;;;;;;;10.45;3.97;;;;;;;;;;4988617;28;20037;-83
2022/12/20 07:12:39;;;;;;;8.77;4.05;;;;;;;;;;4982586;28;20460;-81
2022/12/20 07:15:07;;;;;;;7.97;3.97;;;;;;;;;;4986085;28;20027;-80
2022/12/20 07:17:33;;;;;;;6.68;4.00;;;;;;;;;;4985425;28;20034;-81
2022/12/20 07:19:59;;;;;;;6.95;4.57;;;;;;;;;;4987559;28;20042;-81
2022/12/20 07:22:26;;;;;;;11.02;3.95;;;;;;;;;;4988178;28;20108;-81
2022/12/20 07:24:52;;;;;;;9.45;3.80;;;;;;;;;;4990052;28;20513;-81
2022/12/20 07:27:18;;;;;;;10.52;4.28;;;;;;;;;;4990306;28;20035;-81
2022/12/20 07:29:44;;;;;;;10.63;3.92;;;;;;;;;;4990660;28;20472;-81
2022/12/20 07:32:13;;;;;;;9.60;4.03;;;;;;;;;;4986583;28;20031;-81
2022/12/20 07:34:39;;;;;;;7.75;4.00;;;;;;;;;;4986072;28;20022;-81
2022/12/20 07:37:07;;;;;;;6.57;3.88;;;;;;;;;;4992596;28;20069;-81
2022/12/20 07:39:33;;;;;;;7.03;3.75;;;;;;;;;;4990329;28;20034;-81
2022/12/20 07:42:00;;;;;;;8.50;3.78;;;;;;;;;;4990667;28;20713;-81
2022/12/20 07:44:33;;;;;;;6.75;3.83;;;;;;;;;;5002756;28;20046;-81
2022/12/20 07:46:59;;;;;;;7.35;3.53;;;;;;;;;;4989991;28;20042;-81
2022/12/20 07:49:25;;;;;;;6.75;3.33;;;;;;;;;;4973630;28;20053;-82
2022/12/20 07:51:53;;;;;;;9.00;4.50;;;;;;;;;;4990162;28;20081;-81
2022/12/20 07:54:21;;;;;;;7.00;4.15;;;;;;;;;;4989568;28;20042;-82
2022/12/20 07:56:50;;;;;;;6.72;4.20;;;;;;;;;;4986380;28;20027;-80
2022/12/20 07:59:17;;;;;;;7.40;4.60;;;;;;;;;;4989462;28;20026;-83
2022/12/20 08:01:44;;;;;;;11.50;3.88;;;;;;;;;;4990526;28;20398;-82
2022/12/20 08:04:12;;;;;;;9.27;4.50;;;;;;;;;;4989728;28;20027;-83
2022/12/20 08:06:39;;;;;;;12.40;4.20;;;;;;;;;;4991138;28;20037;-83
2022/12/20 08:09:06;;;;;;;8.38;4.40;;;;;;;;;;4982735;28;20125;-83
2022/12/20 08:11:34;;;;;;;12.05;4.72;;;;;;;;;;4990897;28;20134;-82
2022/12/20 08:14:00;;;;;;;8.82;4.82;;;;;;;;;;4986813;28;20434;-83
2022/12/20 08:16:26;;;;;;;8.38;4.95;;;;;;;;;;4986870;28;20488;-82
2022/12/20 08:18:52;;;;;;;9.38;4.53;;;;;;;;;;4989352;28;20034;-82
2022/12/20 08:21:18;;;;;;;7.50;4.22;;;;;;;;;;4988728;28;20113;-83
2022/12/20 08:23:44;;;;;;;9.10;4.95;;;;;;;;;;4978543;28;20535;-82
2022/12/20 08:26:10;;;;;;;8.90;5.03;;;;;;;;;;4989112;28;20045;-82
2022/12/20 08:28:37;;;;;;;8.52;4.35;;;;;;;;;;4989350;28;20065;-81
2022/12/20 08:31:04;;;;;;;13.77;4.82;;;;;;;;;;4989207;28;20037;-83
2022/12/20 08:33:30;;;;;;;9.27;4.57;;;;;;;;;;4989741;28;20090;-83
2022/12/20 08:35:57;;;;;;;9.38;4.05;;;;;;;;;;4988713;28;20387;-83
2022/12/20 08:38:23;;;;;;;8.30;4.38;;;;;;;;;;4987591;28;20180;-83
2022/12/20 08:40:49;;;;;;;8.35;4.63;;;;;;;;;;4990733;28;20412;-82
2022/12/20 08:43:15;;;;;;;12.43;4.65;;;;;;;;;;4969726;28;20031;-84
2022/12/20 08:45:41;;;;;;;8.77;4.32;;;;;;;;;;4978037;28;20042;-82
2022/12/20 08:48:07;;;;;;;9.70;4.10;;;;;;;;;;4986624;28;20049;-82
2022/12/20 08:50:35;;;;;;;14.77;3.80;;;;;;;;;;4969872;28;20050;-82
2022/12/20 08:53:01;;;;;;;6.90;3.85;;;;;;;;;;4986084;28;20039;-81
2022/12/20 08:55:27;;;;;;;6.20;3.75;;;;;;;;;;4984780;28;20121;-82
2022/12/20 08:57:53;;;;;;;8.70;4.43;;;;;;;;;;4998486;28;20033;-81
2022/12/20 09:00:19;;;;;;;11.63;4.35;;;;;;;;;;4987639;28;20030;-81
2022/12/20 09:02:46;;;;;;;9.55;4.30;;;;;;;;;;4988817;28;20511;-84
2022/12/20 09:05:13;;;;;;;9.63;4.60;;;;;;;;;;4977342;28;20176;-82
2022/12/20 09:07:39;;;;;;;7.55;4.60;;;;;;;;;;4989197;28;20046;-82
2022/12/20 09:10:05;;;;;;;9.70;4.70;;;;;;;;;;4992074;28;20543;-82
2022/12/20 09:12:31;;;;;;;7.95;5.13;;;;;;;;;;4977128;28;20038;-82
2022/12/20 09:14:57;;;;;;;13.15;5.55;;;;;;;;;;5000862;28;20026;-82
2022/12/20 09:17:23;;;;;;;10.07;5.72;;;;;;;;;;4985412;28;20113;-83
2022/12/20 09:19:50;;;;;;;11.77;5.43;;;;;;;;;;4990425;28;20085;-82
2022/12/20 09:22:16;;;;;;;14.88;5.50;;;;;;;;;;4989593;28;20023;-83
2022/12/20 09:24:42;;;;;;;9.85;5.30;;;;;;;;;;4988742;28;20548;-82
2022/12/20 09:27:08;;;;;;;9.05;5.18;;;;;;;;;;5006344;28;20039;-82
2022/12/20 09:29:34;;;;;;;12.77;5.25;;;;;;;;;;4980693;28;20043;-82
2022/12/20 09:32:00;;;;;;;12.65;6.53;;;;;;;;;;4996610;28;20038;-82
2022/12/20 09:34:26;;;;;;;13.07;6.05;;;;;;;;;;5008402;28;20066;-82
2022/12/20 09:36:52;;;;;;;13.82;6.07;;;;;;;;;;5008714;28;20043;-81
2022/12/20 09:39:18;;;;;;;12.57;6.35;;;;;;;;;;5008357;28;20029;-83
2022/12/20 09:41:45;;;;;;;9.07;5.28;;;;;;;;;;4993666;28;20105;-82
2022/12/20 09:44:14;;;;;;;10.45;5.95;;;;;;;;;;4992388;28;20038;-82
2022/12/20 09:46:40;;;;;;;13.27;6.72;;;;;;;;;;4992614;28;20042;-81
2022/12/20 09:49:10;;;;;;;15.82;6.68;;;;;;;;;;4993374;28;20035;-81
2022/12/20 09:51:57;;;;;;;11.52;6.50;;;;;;;;;;4993213;28;20377;-82
2022/12/20 09:54:38;;;;;;;12.15;6.75;;;;;;;;;;4991772;28;20034;-82
2022/12/20 09:57:04;;;;;;;9.35;5.72;;;;;;;;;;4992187;28;20030;-82
2022/12/20 09:59:34;;;;;;;12.88;7.32;;;;;;;;;;4993206;28;20103;-82
2022/12/20 10:02:00;;;;;;;11.48;6.93;;;;;;;;;;4991684;28;20041;-81
2022/12/20 10:04:28;;;;;;;11.18;6.90;;;;;;;;;;4991972;28;20026;-81
2022/12/20 10:07:04;;;;;;;9.13;6.75;;;;;;;;;;4992038;28;20045;-82
2022/12/20 10:09:48;;;;;;;10.90;7.25;;;;;;;;;;4992224;28;20148;-81
2022/12/20 10:12:26;;;;;;;15.07;7.30;;;;;;;;;;4991465;28;20650;-82
2022/12/20 10:15:00;;;;;;;12.57;6.90;;;;;;;;;;5008302;28;20081;-81
2022/12/20 10:17:33;;;;;;;19.42;7.75;;;;;;;;;;5008290;28;20085;-81
2022/12/20 10:20:22;;;;;;;14.80;7.20;;;;;;;;;;5006803;28;20117;-82
2022/12/20 10:23:07;;;;;;;12.88;7.82;;;;;;;;;;4982269;28;20039;-81
2022/12/20 10:25:34;;;;;;;15.88;7.15;;;;;;;;;;4991019;28;20126;-82
2022/12/20 10:28:11;;;;;;;11.65;7.45;;;;;;;;;;4991008;28;20034;-83
2022/12/20 10:30:38;;;;;;;13.98;7.78;;;;;;;;;;4991158;28;20705;-83
2022/12/20 10:33:04;;;;;;;13.40;7.07;;;;;;;;;;4992716;28;20057;-83
2022/12/20 10:35:33;;;;;;;16.75;8.40;;;;;;;;;;4975205;28;20037;-83
2022/12/20 10:38:11;;;;;;;8.93;7.03;;;;;;;;;;4986948;28;20066;-81
2022/12/20 10:40:39;;;;;;;15.43;8.55;;;;;;;;;;4973209;28;20117;-82
2022/12/20 10:43:06;;;;;;;17.75;7.88;;;;;;;;;;4987436;28;20094;-82
2022/12/20 10:45:40;;;;;;;14.35;7.63;;;;;;;;;;5003404;28;20050;-82
2022/12/20 10:48:07;;;;;;;32.00;9.93;;;;;;;;;;4986551;28;20025;-82
2022/12/20 10:50:33;;;;;;;12.70;8.15;;;;;;;;;;4990380;28;20031;-82
2022/12/20 10:53:12;;;;;;;14.77;8.15;;;;;;;;;;5005323;28;20041;-82
2022/12/20 10:55:42;;;;;;;14.70;8.85;;;;;;;;;;4990502;28;20464;-82
2022/12/20 10:58:15;;;;;;;23.27;9.38;;;;;;;;;;4990533;28;20026;-82
2022/12/20 11:00:42;;;;;;;15.35;9.13;;;;;;;;;;4989731;28;20432;-82
2022/12/20 11:03:14;;;;;;;19.38;8.82;;;;;;;;;;4982926;28;20416;-82
2022/12/20 11:05:40;;;;;;;15.57;9.68;;;;;;;;;;4990644;28;20030;-82
2022/12/20 11:08:15;;;;;;;15.82;9.48;;;;;;;;;;4990564;28;20068;-82
2022/12/20 11:10:41;;;;;;;15.77;9.27;;;;;;;;;;4991847;28;20560;-82
2022/12/20 11:13:18;;;;;;;15.68;9.75;;;;;;;;;;4983260;28;20505;-82
2022/12/20 11:15:47;;;;;;;17.10;10.70;;;;;;;;;;4991588;28;20054;-81
2022/12/20 11:18:25;;;;;;;17.63;10.40;;;;;;;;;;4990732;28;20026;-83
2022/12/20 11:20:52;;;;;;;21.25;10.57;;;;;;;;;;4990178;28;20621;-82
2022/12/20 11:23:35;;;;;;;19.67;11.07;;;;;;;;;;4989487;28;20578;-82
2022/12/20 11:26:19;;;;;;;16.35;10.68;;;;;;;;;;4990332;28;20117;-82
2022/12/20 11:29:09;;;;;;;19.30;11.27;;;;;;;;;;4989589;28;20098;-82
2022/12/20 11:31:54;;;;;;;18.85;11.50;;;;;;;;;;4963560;28;20231;-81
2022/12/20 11:34:20;;;;;;;17.05;11.60;;;;;;;;;;5002300;28;20030;-82
2022/12/20 11:36:52;;;;;;;18.15;11.40;;;;;;;;;;4989425;28;20138;-82
2022/12/20 11:39:27;;;;;;;14.50;12.10;;;;;;;;;;4988853;28;20117;-83
2022/12/20 11:42:13;;;;;;;21.88;12.68;;;;;;;;;;4990916;28;20038;-82
2022/12/20 11:44:42;;;;;;;18.48;13.00;;;;;;;;;;4988020;28;20466;-81
2022/12/20 11:47:26;;;;;;;24.70;12.45;;;;;;;;;;4990830;28;20081;-81
2022/12/20 11:49:53;;;;;;;14.60;12.50;;;;;;;;;;4985177;28;20400;-81
2022/12/20 11:52:30;;;;;;;23.02;13.50;;;;;;;;;;4984901;28;20030;-85
2022/12/20 11:55:05;;;;;;;22.08;14.32;;;;;;;;;;5000919;28;20122;-81
2022/12/20 11:57:37;;;;;;;18.35;14.10;;;;;;;;;;4987353;28;20027;-82
2022/12/20 12:00:05;;;;;;;22.67;13.23;;;;;;;;;;4975646;28;20042;-82
2022/12/20 12:02:52;;;;;;;20.13;13.32;;;;;;;;;;4976099;28;20419;-82
2022/12/20 12:05:21;;;;;;;20.58;14.82;;;;;;;;;;4989448;28;20025;-83
2022/12/20 12:07:50;;;;;;;21.77;14.73;;;;;;;;;;4977023;28;20035;-81
2022/12/20 12:10:19;;;;;;;20.77;15.57;;;;;;;;;;5003803;28;20475;-82
2022/12/20 12:12:46;;;;;;;21.02;14.52;;;;;;;;;;4990710;28;20070;-82
2022/12/20 12:15:34;;;;;;;22.85;15.23;;;;;;;;;;4989529;28;20082;-84
2022/12/20 12:18:06;;;;;;;20.38;15.45;;;;;;;;;;4989567;28;20140;-82
2022/12/20 12:20:50;;;;;;;26.52;16.17;;;;;;;;;;4988571;28;20034;-82
2022/12/20 12:23:22;;;;;;;21.35;15.60;;;;;;;;;;4976251;28;20169;-83
2022/12/20 12:25:48;;;;;;;22.25;15.20;;;;;;;;;;4989057;28;20030;-82
2022/12/20 12:28:17;;;;;;;21.75;16.13;;;;;;;;;;4990280;28;20031;-81
2022/12/20 12:30:46;;;;;;;21.48;15.23;;;;;;;;;;4986487;28;20045;-82
2022/12/20 12:33:27;;;;;;;22.52;16.75;;;;;;;;;;4986094;28;20035;-82
2022/12/20 12:35:53;;;;;;;20.35;15.23;;;;;;;;;;4970968;28;20041;-82
2022/12/20 12:38:26;;;;;;;21.15;16.23;;;;;;;;;;4996186;28;20400;-82
2022/12/20 12:41:15;;;;;;;21.67;16.50;;;;;;;;;;4985491;28;20027;-82
2022/12/20 12:43:41;;;;;;;19.35;16.05;;;;;;;;;;4969719;28;20508;-83
2022/12/20 12:46:11;;;;;;;19.58;16.17;;;;;;;;;;4972895;28;20365;-81
2022/12/20 12:48:42;;;;;;;21.73;15.77;;;;;;;;;;4975804;28;20467;-82
2022/12/20 12:51:09;;;;;;;21.17;15.63;;;;;;;;;;4985662;28;20035;-82
2022/12/20 12:53:36;;;;;;;20.95;15.85;;;;;;;;;;4975011;28;20423;-82
2022/12/20 12:56:38;;;;;;;23.88;16.95;;;;;;;;;;4981359;28;20088;-82
2022/12/20 12:59:05;;;;;;;24.33;17.17;;;;;;;;;;4934238;28;20100;-83
2022/12/20 13:01:46;;;;;;;24.58;17.55;;;;;;;;;;4996815;28;20057;-82
2022/12/20 13:04:18;;;;;;;20.35;17.02;;;;;;;;;;5012255;28;20065;-82
2022/12/20 13:06:48;;;;;;;24.10;19.52;;;;;;;;;;5007692;28;20190;-82
2022/12/20 13:09:19;;;;;;;26.85;18.05;;;;;;;;;;4991560;28;20038;-82
2022/12/20 13:11:46;;;;;;;26.60;18.77;;;;;;;;;;4992640;28;20034;-82
2022/12/20 13:14:18;;;;;;;25.38;19.60;;;;;;;;;;5008551;28;20038;-82
2022/12/20 13:16:45;;;;;;;24.70;19.48;;;;;;;;;;4989865;28;20030;-82
2022/12/20 13:19:31;;;;;;;26.45;21.27;;;;;;;;;;4989221;28;20027;-82
2022/12/20 13:21:58;;;;;;;27.90;20.35;;;;;;;;;;4986065;28;20038;-82
2022/12/20 13:24:36;;;;;;;25.48;21.35;;;;;;;;;;4983845;28;20122;-84
2022/12/20 13:27:14;;;;;;;28.65;22.05;;;;;;;;;;4975445;28;20482;-83
2022/12/20 13:29:51;;;;;;;31.88;22.67;;;;;;;;;;5007919;28;20034;-82
2022/12/20 13:32:36;;;;;;;26.48;22.70;;;;;;;;;;4992424;28;20034;-83
2022/12/20 13:35:02;;;;;;;28.90;22.75;;;;;;;;;;4991300;28;20092;-82
2022/12/20 13:37:48;;;;;;;29.75;22.30;;;;;;;;;;5001294;28;20130;-82
2022/12/20 13:40:35;;;;;;;25.30;21.42;;;;;;;;;;4976699;28;20046;-82
2022/12/20 13:43:16;;;;;;;27.35;22.55;;;;;;;;;;4998736;28;20439;-83
2022/12/20 13:45:45;;;;;;;28.27;21.83;;;;;;;;;;4987222;28;20085;-82
2022/12/20 13:48:14;;;;;;;30.23;21.77;;;;;;;;;;4992989;28;20527;-83
2022/12/20 13:50:51;;;;;;;27.02;22.10;;;;;;;;;;5008507;28;20027;-82
2022/12/20 13:53:19;;;;;;;29.50;22.15;;;;;;;;;;4993006;28;20041;-83
2022/12/20 13:55:47;;;;;;;29.00;21.85;;;;;;;;;;4987171;28;20073;-82
2022/12/20 13:58:16;;;;;;;29.40;22.40;;;;;;;;;;4984523;28;20436;-82
2022/12/20 14:00:43;;;;;;;30.17;23.95;;;;;;;;;;4987187;28;20117;-82
2022/12/20 14:03:19;;;;;;;27.63;22.63;;;;;;;;;;4989074;28;20408;-82
2022/12/20 14:05:45;;;;;;;30.98;24.73;;;;;;;;;;4974398;28;20042;-82
2022/12/20 14:08:20;;;;;;;26.85;22.52;;;;;;;;;;4987960;28;20035;-82
2022/12/20 14:10:46;;;;;;;28.20;23.13;;;;;;;;;;4987466;28;20169;-82
2022/12/20 14:13:18;;;;;;;30.42;23.63;;;;;;;;;;4986650;28;20039;-83
2022/12/20 14:15:44;;;;;;;30.73;23.42;;;;;;;;;;4992098;28;20422;-82
2022/12/20 14:18:18;;;;;;;26.67;23.02;;;;;;;;;;4987877;28;20093;-82
2022/12/20 14:20:47;;;;;;;29.08;24.67;;;;;;;;;;4989773;28;20607;-81
2022/12/20 14:23:17;;;;;;;28.63;23.38;;;;;;;;;;4988517;28;20037;-82
2022/12/20 14:25:46;;;;;;;32.63;25.35;;;;;;;;;;4989291;28;22081;-83
2022/12/20 14:28:18;;;;;;;33.33;25.45;;;;;;;;;;4993608;28;20110;-82
2022/12/20 14:30:45;;;;;;;32.80;25.88;;;;;;;;;;4985830;28;20495;-83
2022/12/20 14:33:19;;;;;;;33.63;26.58;;;;;;;;;;5004589;28;20034;-82
2022/12/20 14:35:49;;;;;;;32.42;26.95;;;;;;;;;;4985636;28;20053;-82
2022/12/20 14:38:23;;;;;;;32.35;26.73;;;;;;;;;;4989580;28;20035;-82
2022/12/20 14:40:49;;;;;;;34.33;27.60;;;;;;;;;;4985771;28;20023;-81
2022/12/20 14:43:16;;;;;;;35.70;28.23;;;;;;;;;;4987645;28;20034;-82
2022/12/20 14:45:42;;;;;;;35.30;28.33;;;;;;;;;;4989493;28;20038;-83
2022/12/20 14:48:15;;;;;;;34.85;28.98;;;;;;;;;;4977939;28;20246;-84
2022/12/20 14:50:50;;;;;;;33.90;28.38;;;;;;;;;;4987208;28;20117;-84
2022/12/20 14:53:21;;;;;;;37.63;29.55;;;;;;;;;;4967271;28;20026;-83
2022/12/20 14:55:47;;;;;;;38.20;29.55;;;;;;;;;;4989864;28;20419;-83